sensor_id;sensor_type;location;lat;lon;timestamp;P1;durP1;ratioP1;P2;durP2;ratioP2
9160;SDS011;4615;51.340;8.288;2022-09-03T00:02:01;3.17;;;1.20;;
9160;SDS011;4615;51.340;8.288;2022-09-03T00:04:31;3.60;;;1.30;;
9160;SDS011;4615;51.340;8.288;2022-09-03T00:07:03;1.90;;;1.20;;
9160;SDS011;4615;51.340;8.288;2022-09-03T00:09:32;1.20;;;1.10;;
9160;SDS011;4615;51.340;8.288;2022-09-03T00:12:01;1.90;;;1.30;;
9160;SDS011;4615;51.340;8.288;2022-09-03T00:14:32;1.90;;;1.43;;
9160;SDS011;4615;51.340;8.288;2022-09-03T00:16:59;3.00;;;1.10;;
9160;SDS011;4615;51.340;8.288;2022-09-03T00:19:30;1.60;;;1.30;;
9160;SDS011;4615;51.340;8.288;2022-09-03T00:21:58;2.03;;;1.23;;
9160;SDS011;4615;51.340;8.288;2022-09-03T00:24:27;2.23;;;1.10;;
9160;SDS011;4615;51.340;8.288;2022-09-03T00:26:56;2.10;;;1.47;;
9160;SDS011;4615;51.340;8.288;2022-09-03T00:29:26;2.13;;;1.37;;
9160;SDS011;4615;51.340;8.288;2022-09-03T00:31:55;1.37;;;1.17;;
9160;SDS011;4615;51.340;8.288;2022-09-03T00:34:23;1.13;;;1.10;;
9160;SDS011;4615;51.340;8.288;2022-09-03T00:36:51;2.53;;;1.30;;
9160;SDS011;4615;51.340;8.288;2022-09-03T00:39:18;2.33;;;1.20;;
9160;SDS011;4615;51.340;8.288;2022-09-03T00:41:51;1.30;;;1.20;;
9160;SDS011;4615;51.340;8.288;2022-09-03T00:44:31;1.73;;;1.33;;
9160;SDS011;4615;51.340;8.288;2022-09-03T00:47:04;2.10;;;1.30;;
9160;SDS011;4615;51.340;8.288;2022-09-03T00:49:35;1.93;;;1.13;;
9160;SDS011;4615;51.340;8.288;2022-09-03T00:52:10;2.10;;;1.10;;
9160;SDS011;4615;51.340;8.288;2022-09-03T00:54:41;1.20;;;1.10;;
9160;SDS011;4615;51.340;8.288;2022-09-03T00:57:16;2.50;;;1.30;;
9160;SDS011;4615;51.340;8.288;2022-09-03T00:59:50;1.57;;;1.20;;
9160;SDS011;4615;51.340;8.288;2022-09-03T01:02:22;2.03;;;1.23;;
9160;SDS011;4615;51.340;8.288;2022-09-03T01:04:55;1.50;;;1.00;;
9160;SDS011;4615;51.340;8.288;2022-09-03T01:07:29;2.30;;;1.40;;
9160;SDS011;4615;51.340;8.288;2022-09-03T01:09:59;2.17;;;1.40;;
9160;SDS011;4615;51.340;8.288;2022-09-03T01:12:34;1.20;;;1.10;;
9160;SDS011;4615;51.340;8.288;2022-09-03T01:15:05;1.40;;;1.30;;
9160;SDS011;4615;51.340;8.288;2022-09-03T01:17:35;1.40;;;1.27;;
9160;SDS011;4615;51.340;8.288;2022-09-03T01:20:19;1.50;;;1.30;;
9160;SDS011;4615;51.340;8.288;2022-09-03T01:25:36;1.57;;;1.47;;
9160;SDS011;4615;51.340;8.288;2022-09-03T01:28:09;1.97;;;1.40;;
9160;SDS011;4615;51.340;8.288;2022-09-03T01:30:40;4.57;;;1.30;;
9160;SDS011;4615;51.340;8.288;2022-09-03T01:33:12;2.77;;;1.40;;
9160;SDS011;4615;51.340;8.288;2022-09-03T01:35:42;1.93;;;1.50;;
9160;SDS011;4615;51.340;8.288;2022-09-03T01:38:11;1.30;;;1.20;;
9160;SDS011;4615;51.340;8.288;2022-09-03T01:40:41;1.87;;;1.23;;
9160;SDS011;4615;51.340;8.288;2022-09-03T01:43:23;1.50;;;1.40;;
9160;SDS011;4615;51.340;8.288;2022-09-03T01:46:00;1.50;;;1.40;;
9160;SDS011;4615;51.340;8.288;2022-09-03T01:48:37;1.73;;;1.20;;
9160;SDS011;4615;51.340;8.288;2022-09-03T01:51:07;2.17;;;1.23;;
9160;SDS011;4615;51.340;8.288;2022-09-03T01:56:29;1.40;;;1.30;;
9160;SDS011;4615;51.340;8.288;2022-09-03T01:59:02;1.40;;;1.30;;
9160;SDS011;4615;51.340;8.288;2022-09-03T02:01:32;1.37;;;1.27;;
9160;SDS011;4615;51.340;8.288;2022-09-03T02:03:59;1.30;;;1.20;;
9160;SDS011;4615;51.340;8.288;2022-09-03T02:06:27;2.07;;;1.30;;
9160;SDS011;4615;51.340;8.288;2022-09-03T02:08:56;1.30;;;1.20;;
9160;SDS011;4615;51.340;8.288;2022-09-03T02:11:22;1.30;;;1.20;;
9160;SDS011;4615;51.340;8.288;2022-09-03T02:13:49;1.87;;;1.20;;
9160;SDS011;4615;51.340;8.288;2022-09-03T02:16:19;1.37;;;1.20;;
9160;SDS011;4615;51.340;8.288;2022-09-03T02:18:49;1.23;;;1.13;;
9160;SDS011;4615;51.340;8.288;2022-09-03T02:21:17;2.07;;;1.30;;
9160;SDS011;4615;51.340;8.288;2022-09-03T02:23:44;2.07;;;1.73;;
9160;SDS011;4615;51.340;8.288;2022-09-03T02:26:11;1.50;;;1.20;;
9160;SDS011;4615;51.340;8.288;2022-09-03T02:28:37;2.27;;;1.17;;
9160;SDS011;4615;51.340;8.288;2022-09-03T02:31:04;3.10;;;1.30;;
9160;SDS011;4615;51.340;8.288;2022-09-03T02:33:34;1.93;;;1.30;;
9160;SDS011;4615;51.340;8.288;2022-09-03T02:36:01;1.40;;;1.30;;
9160;SDS011;4615;51.340;8.288;2022-09-03T02:38:28;1.40;;;1.30;;
9160;SDS011;4615;51.340;8.288;2022-09-03T02:40:55;1.40;;;1.30;;
9160;SDS011;4615;51.340;8.288;2022-09-03T02:43:22;2.03;;;1.20;;
9160;SDS011;4615;51.340;8.288;2022-09-03T02:45:52;1.63;;;1.23;;
9160;SDS011;4615;51.340;8.288;2022-09-03T02:48:22;1.17;;;1.07;;
9160;SDS011;4615;51.340;8.288;2022-09-03T02:50:50;1.40;;;1.10;;
9160;SDS011;4615;51.340;8.288;2022-09-03T02:53:16;1.20;;;1.10;;
9160;SDS011;4615;51.340;8.288;2022-09-03T02:55:43;1.63;;;1.53;;
9160;SDS011;4615;51.340;8.288;2022-09-03T02:58:09;1.30;;;1.20;;
9160;SDS011;4615;51.340;8.288;2022-09-03T03:00:35;2.30;;;1.30;;
9160;SDS011;4615;51.340;8.288;2022-09-03T03:03:02;2.13;;;1.30;;
9160;SDS011;4615;51.340;8.288;2022-09-03T03:05:31;1.33;;;1.23;;
9160;SDS011;4615;51.340;8.288;2022-09-03T03:08:02;2.47;;;1.20;;
9160;SDS011;4615;51.340;8.288;2022-09-03T03:10:28;2.43;;;1.40;;
9160;SDS011;4615;51.340;8.288;2022-09-03T03:12:55;1.47;;;1.37;;
9160;SDS011;4615;51.340;8.288;2022-09-03T03:15:21;1.47;;;1.20;;
9160;SDS011;4615;51.340;8.288;2022-09-03T03:17:47;2.17;;;1.43;;
9160;SDS011;4615;51.340;8.288;2022-09-03T03:20:14;1.40;;;1.20;;
9160;SDS011;4615;51.340;8.288;2022-09-03T03:22:40;1.20;;;1.00;;
9160;SDS011;4615;51.340;8.288;2022-09-03T03:25:08;1.50;;;1.13;;
9160;SDS011;4615;51.340;8.288;2022-09-03T03:27:35;2.10;;;1.40;;
9160;SDS011;4615;51.340;8.288;2022-09-03T03:30:07;1.40;;;1.20;;
9160;SDS011;4615;51.340;8.288;2022-09-03T03:32:34;2.30;;;1.40;;
9160;SDS011;4615;51.340;8.288;2022-09-03T03:35:00;1.60;;;1.30;;
9160;SDS011;4615;51.340;8.288;2022-09-03T03:37:26;1.47;;;1.23;;
9160;SDS011;4615;51.340;8.288;2022-09-03T03:39:53;2.67;;;1.23;;
9160;SDS011;4615;51.340;8.288;2022-09-03T03:42:20;1.30;;;1.20;;
9160;SDS011;4615;51.340;8.288;2022-09-03T03:44:47;1.63;;;1.40;;
9160;SDS011;4615;51.340;8.288;2022-09-03T03:47:13;1.47;;;1.20;;
9160;SDS011;4615;51.340;8.288;2022-09-03T03:49:41;1.70;;;1.37;;
9160;SDS011;4615;51.340;8.288;2022-09-03T03:52:07;1.33;;;1.10;;
9160;SDS011;4615;51.340;8.288;2022-09-03T03:54:33;1.33;;;1.20;;
9160;SDS011;4615;51.340;8.288;2022-09-03T03:57:00;1.77;;;1.13;;
9160;SDS011;4615;51.340;8.288;2022-09-03T03:59:28;1.23;;;1.13;;
9160;SDS011;4615;51.340;8.288;2022-09-03T04:01:54;2.50;;;1.30;;
9160;SDS011;4615;51.340;8.288;2022-09-03T04:04:21;1.70;;;1.40;;
9160;SDS011;4615;51.340;8.288;2022-09-03T04:06:47;1.30;;;1.20;;
9160;SDS011;4615;51.340;8.288;2022-09-03T04:09:14;1.43;;;1.30;;
9160;SDS011;4615;51.340;8.288;2022-09-03T04:11:40;1.37;;;1.27;;
9160;SDS011;4615;51.340;8.288;2022-09-03T04:14:07;2.13;;;1.57;;
9160;SDS011;4615;51.340;8.288;2022-09-03T04:16:34;2.00;;;1.40;;
9160;SDS011;4615;51.340;8.288;2022-09-03T04:19:01;2.30;;;1.30;;
9160;SDS011;4615;51.340;8.288;2022-09-03T04:21:28;2.27;;;1.43;;
9160;SDS011;4615;51.340;8.288;2022-09-03T04:23:55;2.03;;;1.43;;
9160;SDS011;4615;51.340;8.288;2022-09-03T04:26:22;1.50;;;1.40;;
9160;SDS011;4615;51.340;8.288;2022-09-03T04:28:49;2.57;;;1.63;;
9160;SDS011;4615;51.340;8.288;2022-09-03T04:31:16;1.83;;;1.70;;
9160;SDS011;4615;51.340;8.288;2022-09-03T04:33:44;2.20;;;1.60;;
9160;SDS011;4615;51.340;8.288;2022-09-03T04:36:12;2.60;;;1.60;;
9160;SDS011;4615;51.340;8.288;2022-09-03T04:38:39;1.60;;;1.47;;
9160;SDS011;4615;51.340;8.288;2022-09-03T04:41:06;2.00;;;1.43;;
9160;SDS011;4615;51.340;8.288;2022-09-03T04:43:33;2.77;;;1.60;;
9160;SDS011;4615;51.340;8.288;2022-09-03T04:46:00;2.30;;;1.30;;
9160;SDS011;4615;51.340;8.288;2022-09-03T04:48:27;2.57;;;1.20;;
9160;SDS011;4615;51.340;8.288;2022-09-03T04:51:00;1.80;;;1.50;;
9160;SDS011;4615;51.340;8.288;2022-09-03T04:53:30;1.40;;;1.30;;
9160;SDS011;4615;51.340;8.288;2022-09-03T04:55:56;2.13;;;1.53;;
9160;SDS011;4615;51.340;8.288;2022-09-03T04:58:22;2.77;;;1.37;;
9160;SDS011;4615;51.340;8.288;2022-09-03T05:00:49;2.20;;;1.33;;
9160;SDS011;4615;51.340;8.288;2022-09-03T05:03:15;2.53;;;1.83;;
9160;SDS011;4615;51.340;8.288;2022-09-03T05:05:42;2.40;;;1.57;;
9160;SDS011;4615;51.340;8.288;2022-09-03T05:08:09;1.63;;;1.50;;
9160;SDS011;4615;51.340;8.288;2022-09-03T05:10:36;3.63;;;1.80;;
9160;SDS011;4615;51.340;8.288;2022-09-03T05:13:03;5.10;;;1.90;;
9160;SDS011;4615;51.340;8.288;2022-09-03T05:15:30;3.27;;;2.00;;
9160;SDS011;4615;51.340;8.288;2022-09-03T05:17:58;6.47;;;2.30;;
9160;SDS011;4615;51.340;8.288;2022-09-03T05:20:26;6.27;;;2.60;;
9160;SDS011;4615;51.340;8.288;2022-09-03T05:22:54;6.47;;;1.97;;
9160;SDS011;4615;51.340;8.288;2022-09-03T05:25:22;4.47;;;2.20;;
9160;SDS011;4615;51.340;8.288;2022-09-03T05:27:48;2.50;;;2.03;;
9160;SDS011;4615;51.340;8.288;2022-09-03T05:30:15;2.80;;;2.23;;
9160;SDS011;4615;51.340;8.288;2022-09-03T05:32:42;2.70;;;2.17;;
9160;SDS011;4615;51.340;8.288;2022-09-03T05:35:08;4.73;;;1.80;;
9160;SDS011;4615;51.340;8.288;2022-09-03T05:37:35;4.83;;;2.50;;
9160;SDS011;4615;51.340;8.288;2022-09-03T05:40:03;6.70;;;2.27;;
9160;SDS011;4615;51.340;8.288;2022-09-03T05:42:31;5.73;;;2.63;;
9160;SDS011;4615;51.340;8.288;2022-09-03T05:45:03;4.40;;;2.47;;
9160;SDS011;4615;51.340;8.288;2022-09-03T05:47:30;8.50;;;2.40;;
9160;SDS011;4615;51.340;8.288;2022-09-03T05:49:56;3.47;;;2.00;;
9160;SDS011;4615;51.340;8.288;2022-09-03T05:52:23;2.63;;;1.90;;
9160;SDS011;4615;51.340;8.288;2022-09-03T05:54:49;3.47;;;1.60;;
9160;SDS011;4615;51.340;8.288;2022-09-03T05:57:15;3.73;;;2.27;;
9160;SDS011;4615;51.340;8.288;2022-09-03T05:59:43;2.80;;;1.87;;
9160;SDS011;4615;51.340;8.288;2022-09-03T06:02:09;3.93;;;2.10;;
9160;SDS011;4615;51.340;8.288;2022-09-03T06:04:36;4.47;;;2.20;;
9160;SDS011;4615;51.340;8.288;2022-09-03T06:07:03;4.80;;;2.10;;
9160;SDS011;4615;51.340;8.288;2022-09-03T06:09:29;8.33;;;1.90;;
9160;SDS011;4615;51.340;8.288;2022-09-03T06:11:55;3.57;;;2.17;;
9160;SDS011;4615;51.340;8.288;2022-09-03T06:14:22;3.47;;;1.90;;
9160;SDS011;4615;51.340;8.288;2022-09-03T06:16:50;2.10;;;1.90;;
9160;SDS011;4615;51.340;8.288;2022-09-03T06:19:17;2.20;;;2.00;;
9160;SDS011;4615;51.340;8.288;2022-09-03T06:21:44;2.43;;;2.07;;
9160;SDS011;4615;51.340;8.288;2022-09-03T06:24:11;3.10;;;1.97;;
9160;SDS011;4615;51.340;8.288;2022-09-03T06:26:37;3.47;;;1.60;;
9160;SDS011;4615;51.340;8.288;2022-09-03T06:29:04;2.37;;;1.50;;
9160;SDS011;4615;51.340;8.288;2022-09-03T06:31:30;2.30;;;1.50;;
9160;SDS011;4615;51.340;8.288;2022-09-03T06:33:58;1.80;;;1.40;;
9160;SDS011;4615;51.340;8.288;2022-09-03T06:36:25;2.03;;;1.30;;
9160;SDS011;4615;51.340;8.288;2022-09-03T06:38:52;2.70;;;1.30;;
9160;SDS011;4615;51.340;8.288;2022-09-03T06:41:19;1.57;;;1.30;;
9160;SDS011;4615;51.340;8.288;2022-09-03T06:43:49;2.73;;;1.53;;
9160;SDS011;4615;51.340;8.288;2022-09-03T06:46:16;1.30;;;1.20;;
9160;SDS011;4615;51.340;8.288;2022-09-03T06:48:43;1.57;;;1.47;;
9160;SDS011;4615;51.340;8.288;2022-09-03T06:51:12;1.80;;;1.30;;
9160;SDS011;4615;51.340;8.288;2022-09-03T06:53:39;1.40;;;1.30;;
9160;SDS011;4615;51.340;8.288;2022-09-03T06:56:07;1.67;;;1.37;;
9160;SDS011;4615;51.340;8.288;2022-09-03T06:58:34;2.10;;;1.33;;
9160;SDS011;4615;51.340;8.288;2022-09-03T07:01:01;2.30;;;1.30;;
9160;SDS011;4615;51.340;8.288;2022-09-03T07:03:30;1.50;;;1.40;;
9160;SDS011;4615;51.340;8.288;2022-09-03T07:05:59;6.87;;;1.70;;
9160;SDS011;4615;51.340;8.288;2022-09-03T07:08:27;2.40;;;1.40;;
9160;SDS011;4615;51.340;8.288;2022-09-03T07:10:53;1.50;;;1.20;;
9160;SDS011;4615;51.340;8.288;2022-09-03T07:13:20;1.87;;;1.20;;
9160;SDS011;4615;51.340;8.288;2022-09-03T07:15:46;1.53;;;1.33;;
9160;SDS011;4615;51.340;8.288;2022-09-03T07:18:13;1.90;;;1.27;;
9160;SDS011;4615;51.340;8.288;2022-09-03T07:20:39;1.67;;;1.40;;
9160;SDS011;4615;51.340;8.288;2022-09-03T07:23:05;3.30;;;1.30;;
9160;SDS011;4615;51.340;8.288;2022-09-03T07:25:33;1.30;;;1.20;;
9160;SDS011;4615;51.340;8.288;2022-09-03T07:28:00;2.87;;;1.30;;
9160;SDS011;4615;51.340;8.288;2022-09-03T07:30:26;1.83;;;1.30;;
9160;SDS011;4615;51.340;8.288;2022-09-03T07:32:53;4.70;;;1.80;;
9160;SDS011;4615;51.340;8.288;2022-09-03T07:35:19;2.93;;;1.17;;
9160;SDS011;4615;51.340;8.288;2022-09-03T07:37:49;2.90;;;1.40;;
9160;SDS011;4615;51.340;8.288;2022-09-03T07:40:16;2.07;;;1.40;;
9160;SDS011;4615;51.340;8.288;2022-09-03T07:42:45;1.30;;;1.20;;
9160;SDS011;4615;51.340;8.288;2022-09-03T07:45:12;3.93;;;1.27;;
9160;SDS011;4615;51.340;8.288;2022-09-03T07:47:44;3.23;;;1.60;;
9160;SDS011;4615;51.340;8.288;2022-09-03T07:50:11;3.17;;;1.40;;
9160;SDS011;4615;51.340;8.288;2022-09-03T07:52:37;2.67;;;1.50;;
9160;SDS011;4615;51.340;8.288;2022-09-03T07:55:04;1.97;;;1.20;;
9160;SDS011;4615;51.340;8.288;2022-09-03T07:57:30;2.03;;;1.10;;
9160;SDS011;4615;51.340;8.288;2022-09-03T07:59:58;1.47;;;1.37;;
9160;SDS011;4615;51.340;8.288;2022-09-03T08:02:25;3.47;;;1.20;;
9160;SDS011;4615;51.340;8.288;2022-09-03T08:04:51;1.70;;;1.30;;
9160;SDS011;4615;51.340;8.288;2022-09-03T08:07:17;2.63;;;1.40;;
9160;SDS011;4615;51.340;8.288;2022-09-03T08:09:44;0.90;;;0.90;;
9160;SDS011;4615;51.340;8.288;2022-09-03T08:12:10;2.07;;;1.50;;
9160;SDS011;4615;51.340;8.288;2022-09-03T08:14:37;1.83;;;1.33;;
9160;SDS011;4615;51.340;8.288;2022-09-03T08:17:04;1.20;;;1.10;;
9160;SDS011;4615;51.340;8.288;2022-09-03T08:19:32;2.20;;;1.47;;
9160;SDS011;4615;51.340;8.288;2022-09-03T08:21:58;1.60;;;1.30;;
9160;SDS011;4615;51.340;8.288;2022-09-03T08:24:25;1.50;;;1.10;;
9160;SDS011;4615;51.340;8.288;2022-09-03T08:26:51;1.87;;;1.33;;
9160;SDS011;4615;51.340;8.288;2022-09-03T08:29:18;1.37;;;1.20;;
9160;SDS011;4615;51.340;8.288;2022-09-03T08:31:44;2.40;;;1.30;;
9160;SDS011;4615;51.340;8.288;2022-09-03T08:34:12;4.53;;;1.40;;
9160;SDS011;4615;51.340;8.288;2022-09-03T08:36:41;1.70;;;1.30;;
9160;SDS011;4615;51.340;8.288;2022-09-03T08:39:07;2.40;;;1.33;;
9160;SDS011;4615;51.340;8.288;2022-09-03T08:41:37;1.70;;;1.30;;
9160;SDS011;4615;51.340;8.288;2022-09-03T08:44:08;1.77;;;1.40;;
9160;SDS011;4615;51.340;8.288;2022-09-03T08:46:42;1.73;;;1.37;;
9160;SDS011;4615;51.340;8.288;2022-09-03T08:49:10;1.87;;;1.40;;
9160;SDS011;4615;51.340;8.288;2022-09-03T08:51:40;2.80;;;1.60;;
9160;SDS011;4615;51.340;8.288;2022-09-03T08:54:08;2.40;;;1.40;;
9160;SDS011;4615;51.340;8.288;2022-09-03T08:56:36;5.30;;;1.40;;
9160;SDS011;4615;51.340;8.288;2022-09-03T08:59:03;1.67;;;1.53;;
9160;SDS011;4615;51.340;8.288;2022-09-03T09:01:33;3.83;;;1.33;;
9160;SDS011;4615;51.340;8.288;2022-09-03T09:04:07;2.57;;;1.60;;
9160;SDS011;4615;51.340;8.288;2022-09-03T09:06:38;2.30;;;1.50;;
9160;SDS011;4615;51.340;8.288;2022-09-03T09:09:12;1.30;;;1.20;;
9160;SDS011;4615;51.340;8.288;2022-09-03T09:11:45;6.20;;;1.40;;
9160;SDS011;4615;51.340;8.288;2022-09-03T09:14:16;2.93;;;1.60;;
9160;SDS011;4615;51.340;8.288;2022-09-03T09:16:47;3.20;;;1.57;;
9160;SDS011;4615;51.340;8.288;2022-09-03T09:19:19;2.70;;;1.40;;
9160;SDS011;4615;51.340;8.288;2022-09-03T09:21:50;1.93;;;1.50;;
9160;SDS011;4615;51.340;8.288;2022-09-03T09:24:22;3.13;;;1.20;;
9160;SDS011;4615;51.340;8.288;2022-09-03T09:26:51;1.63;;;1.30;;
9160;SDS011;4615;51.340;8.288;2022-09-03T09:29:21;3.47;;;1.80;;
9160;SDS011;4615;51.340;8.288;2022-09-03T09:31:48;3.83;;;1.50;;
9160;SDS011;4615;51.340;8.288;2022-09-03T09:34:18;1.50;;;1.40;;
9160;SDS011;4615;51.340;8.288;2022-09-03T09:36:46;1.77;;;1.37;;
9160;SDS011;4615;51.340;8.288;2022-09-03T09:39:14;2.80;;;1.50;;
9160;SDS011;4615;51.340;8.288;2022-09-03T09:41:53;1.50;;;1.40;;
9160;SDS011;4615;51.340;8.288;2022-09-03T09:44:24;2.25;;;1.45;;
9160;SDS011;4615;51.340;8.288;2022-09-03T09:47:00;2.22;;;1.98;;
9160;SDS011;4615;51.340;8.288;2022-09-03T09:49:32;1.40;;;1.30;;
9160;SDS011;4615;51.340;8.288;2022-09-03T09:52:01;2.40;;;1.37;;
9160;SDS011;4615;51.340;8.288;2022-09-03T09:54:28;2.47;;;1.50;;
9160;SDS011;4615;51.340;8.288;2022-09-03T09:57:01;3.38;;;1.50;;
9160;SDS011;4615;51.340;8.288;2022-09-03T09:59:30;3.55;;;1.67;;
9160;SDS011;4615;51.340;8.288;2022-09-03T10:04:46;2.13;;;1.40;;
9160;SDS011;4615;51.340;8.288;2022-09-03T10:07:22;4.70;;;1.77;;
9160;SDS011;4615;51.340;8.288;2022-09-03T10:09:59;4.60;;;1.65;;
9160;SDS011;4615;51.340;8.288;2022-09-03T10:12:29;2.72;;;1.58;;
9160;SDS011;4615;51.340;8.288;2022-09-03T10:14:57;5.03;;;1.40;;
9160;SDS011;4615;51.340;8.288;2022-09-03T10:17:25;2.42;;;1.40;;
9160;SDS011;4615;51.340;8.288;2022-09-03T10:19:55;2.20;;;1.27;;
9160;SDS011;4615;51.340;8.288;2022-09-03T10:22:38;3.20;;;1.50;;
9160;SDS011;4615;51.340;8.288;2022-09-03T10:25:10;3.10;;;1.40;;
9160;SDS011;4615;51.340;8.288;2022-09-03T10:27:40;3.95;;;1.73;;
9160;SDS011;4615;51.340;8.288;2022-09-03T10:30:08;1.50;;;1.40;;
9160;SDS011;4615;51.340;8.288;2022-09-03T10:32:35;3.00;;;1.60;;
9160;SDS011;4615;51.340;8.288;2022-09-03T10:35:05;2.25;;;1.48;;
9160;SDS011;4615;51.340;8.288;2022-09-03T10:37:37;1.98;;;1.40;;
9160;SDS011;4615;51.340;8.288;2022-09-03T10:40:09;1.50;;;1.40;;
9160;SDS011;4615;51.340;8.288;2022-09-03T10:42:41;1.67;;;1.40;;
9160;SDS011;4615;51.340;8.288;2022-09-03T10:45:17;2.03;;;1.50;;
9160;SDS011;4615;51.340;8.288;2022-09-03T10:47:52;1.70;;;1.27;;
9160;SDS011;4615;51.340;8.288;2022-09-03T10:50:25;2.95;;;1.50;;
9160;SDS011;4615;51.340;8.288;2022-09-03T10:52:58;2.40;;;1.63;;
9160;SDS011;4615;51.340;8.288;2022-09-03T10:55:34;3.15;;;1.77;;
9160;SDS011;4615;51.340;8.288;2022-09-03T10:58:07;1.48;;;1.38;;
9160;SDS011;4615;51.340;8.288;2022-09-03T11:00:38;2.05;;;1.30;;
9160;SDS011;4615;51.340;8.288;2022-09-03T11:05:52;1.70;;;1.23;;
9160;SDS011;4615;51.340;8.288;2022-09-03T11:08:20;6.10;;;1.73;;
9160;SDS011;4615;51.340;8.288;2022-09-03T11:10:49;1.73;;;1.40;;
9160;SDS011;4615;51.340;8.288;2022-09-03T11:13:20;2.15;;;1.63;;
9160;SDS011;4615;51.340;8.288;2022-09-03T11:15:48;1.88;;;1.35;;
9160;SDS011;4615;51.340;8.288;2022-09-03T11:18:17;1.83;;;1.45;;
9160;SDS011;4615;51.340;8.288;2022-09-03T11:20:45;1.58;;;1.40;;
9160;SDS011;4615;51.340;8.288;2022-09-03T11:23:13;1.77;;;1.67;;
9160;SDS011;4615;51.340;8.288;2022-09-03T11:25:45;2.20;;;1.50;;
9160;SDS011;4615;51.340;8.288;2022-09-03T11:28:15;1.98;;;1.77;;
9160;SDS011;4615;51.340;8.288;2022-09-03T11:30:51;1.60;;;1.50;;
9160;SDS011;4615;51.340;8.288;2022-09-03T11:33:22;2.83;;;1.45;;
9160;SDS011;4615;51.340;8.288;2022-09-03T11:35:54;1.48;;;1.38;;
9160;SDS011;4615;51.340;8.288;2022-09-03T11:38:21;2.28;;;1.65;;
9160;SDS011;4615;51.340;8.288;2022-09-03T11:40:58;1.63;;;1.50;;
9160;SDS011;4615;51.340;8.288;2022-09-03T11:43:26;1.95;;;1.40;;
9160;SDS011;4615;51.340;8.288;2022-09-03T11:46:02;1.58;;;1.48;;
9160;SDS011;4615;51.340;8.288;2022-09-03T11:48:35;1.58;;;1.40;;
9160;SDS011;4615;51.340;8.288;2022-09-03T11:51:02;1.48;;;1.38;;
9160;SDS011;4615;51.340;8.288;2022-09-03T11:53:32;2.00;;;1.58;;
9160;SDS011;4615;51.340;8.288;2022-09-03T11:56:00;3.28;;;1.70;;
9160;SDS011;4615;51.340;8.288;2022-09-03T11:58:28;3.72;;;1.40;;
9160;SDS011;4615;51.340;8.288;2022-09-03T12:00:57;2.65;;;1.50;;
9160;SDS011;4615;51.340;8.288;2022-09-03T12:03:27;6.35;;;1.88;;
9160;SDS011;4615;51.340;8.288;2022-09-03T12:06:02;2.17;;;1.60;;
9160;SDS011;4615;51.340;8.288;2022-09-03T12:08:37;2.88;;;1.60;;
9160;SDS011;4615;51.340;8.288;2022-09-03T12:11:09;2.53;;;1.30;;
9160;SDS011;4615;51.340;8.288;2022-09-03T12:13:43;2.42;;;1.55;;
9160;SDS011;4615;51.340;8.288;2022-09-03T12:16:16;1.80;;;1.40;;
9160;SDS011;4615;51.340;8.288;2022-09-03T12:18:49;1.85;;;1.48;;
9160;SDS011;4615;51.340;8.288;2022-09-03T12:21:17;1.45;;;1.30;;
9160;SDS011;4615;51.340;8.288;2022-09-03T12:23:44;2.67;;;1.40;;
9160;SDS011;4615;51.340;8.288;2022-09-03T12:26:13;4.15;;;1.73;;
9160;SDS011;4615;51.340;8.288;2022-09-03T12:28:40;4.05;;;1.40;;
9160;SDS011;4615;51.340;8.288;2022-09-03T12:31:08;5.72;;;1.70;;
9160;SDS011;4615;51.340;8.288;2022-09-03T12:33:46;2.15;;;1.40;;
9160;SDS011;4615;51.340;8.288;2022-09-03T12:36:13;1.85;;;1.52;;
9160;SDS011;4615;51.340;8.288;2022-09-03T12:38:40;1.65;;;1.50;;
9160;SDS011;4615;51.340;8.288;2022-09-03T12:41:18;8.65;;;1.77;;
9160;SDS011;4615;51.340;8.288;2022-09-03T12:43:48;1.77;;;1.67;;
9160;SDS011;4615;51.340;8.288;2022-09-03T12:46:15;1.30;;;1.20;;
9160;SDS011;4615;51.340;8.288;2022-09-03T12:48:45;2.50;;;1.30;;
9160;SDS011;4615;51.340;8.288;2022-09-03T12:51:13;4.18;;;1.50;;
9160;SDS011;4615;51.340;8.288;2022-09-03T12:53:39;3.05;;;1.60;;
9160;SDS011;4615;51.340;8.288;2022-09-03T12:56:06;2.03;;;1.33;;
9160;SDS011;4615;51.340;8.288;2022-09-03T12:58:34;1.52;;;1.30;;
9160;SDS011;4615;51.340;8.288;2022-09-03T13:01:04;1.50;;;1.40;;
9160;SDS011;4615;51.340;8.288;2022-09-03T13:03:37;1.40;;;1.30;;
9160;SDS011;4615;51.340;8.288;2022-09-03T13:06:05;1.63;;;1.48;;
9160;SDS011;4615;51.340;8.288;2022-09-03T13:08:36;1.50;;;1.40;;
9160;SDS011;4615;51.340;8.288;2022-09-03T13:11:04;1.73;;;1.40;;
9160;SDS011;4615;51.340;8.288;2022-09-03T13:13:31;2.70;;;1.40;;
9160;SDS011;4615;51.340;8.288;2022-09-03T13:16:05;1.63;;;1.38;;
9160;SDS011;4615;51.340;8.288;2022-09-03T13:18:36;1.88;;;1.50;;
9160;SDS011;4615;51.340;8.288;2022-09-03T13:21:08;2.67;;;1.50;;
9160;SDS011;4615;51.340;8.288;2022-09-03T13:26:33;1.52;;;1.42;;
9160;SDS011;4615;51.340;8.288;2022-09-03T13:29:11;1.85;;;1.40;;
9160;SDS011;4615;51.340;8.288;2022-09-03T13:31:42;1.90;;;1.50;;
9160;SDS011;4615;51.340;8.288;2022-09-03T13:34:12;2.90;;;1.80;;
9160;SDS011;4615;51.340;8.288;2022-09-03T13:36:41;6.13;;;1.45;;
9160;SDS011;4615;51.340;8.288;2022-09-03T13:39:15;2.20;;;1.75;;
9160;SDS011;4615;51.340;8.288;2022-09-03T13:41:47;3.60;;;1.83;;
9160;SDS011;4615;51.340;8.288;2022-09-03T13:44:15;3.08;;;1.70;;
9160;SDS011;4615;51.340;8.288;2022-09-03T13:46:44;2.55;;;2.08;;
9160;SDS011;4615;51.340;8.288;2022-09-03T13:49:17;1.50;;;1.40;;
9160;SDS011;4615;51.340;8.288;2022-09-03T13:52:03;2.50;;;1.70;;
9160;SDS011;4615;51.340;8.288;2022-09-03T13:54:33;3.47;;;1.77;;
9160;SDS011;4615;51.340;8.288;2022-09-03T13:57:03;3.42;;;1.73;;
9160;SDS011;4615;51.340;8.288;2022-09-03T13:59:31;1.60;;;1.50;;
9160;SDS011;4615;51.340;8.288;2022-09-03T14:02:01;2.88;;;1.92;;
9160;SDS011;4615;51.340;8.288;2022-09-03T14:04:33;2.90;;;2.30;;
9160;SDS011;4615;51.340;8.288;2022-09-03T14:07:05;2.58;;;2.05;;
9160;SDS011;4615;51.340;8.288;2022-09-03T14:09:36;2.20;;;1.70;;
9160;SDS011;4615;51.340;8.288;2022-09-03T14:12:08;2.97;;;2.15;;
9160;SDS011;4615;51.340;8.288;2022-09-03T14:14:40;2.78;;;1.90;;
9160;SDS011;4615;51.340;8.288;2022-09-03T14:17:11;5.28;;;3.05;;
9160;SDS011;4615;51.340;8.288;2022-09-03T14:19:41;5.70;;;3.60;;
9160;SDS011;4615;51.340;8.288;2022-09-03T14:22:09;3.50;;;2.75;;
9160;SDS011;4615;51.340;8.288;2022-09-03T14:24:40;3.45;;;2.50;;
9160;SDS011;4615;51.340;8.288;2022-09-03T14:27:11;2.25;;;2.05;;
9160;SDS011;4615;51.340;8.288;2022-09-03T14:29:38;2.50;;;2.30;;
9160;SDS011;4615;51.340;8.288;2022-09-03T14:32:21;2.45;;;2.25;;
9160;SDS011;4615;51.340;8.288;2022-09-03T14:34:54;2.47;;;1.98;;
9160;SDS011;4615;51.340;8.288;2022-09-03T14:37:30;3.70;;;1.90;;
9160;SDS011;4615;51.340;8.288;2022-09-03T14:40:02;2.67;;;1.70;;
9160;SDS011;4615;51.340;8.288;2022-09-03T14:42:35;1.92;;;1.65;;
9160;SDS011;4615;51.340;8.288;2022-09-03T14:45:22;2.00;;;1.60;;
9160;SDS011;4615;51.340;8.288;2022-09-03T14:48:03;1.88;;;1.65;;
9160;SDS011;4615;51.340;8.288;2022-09-03T14:50:39;2.53;;;1.80;;
9160;SDS011;4615;51.340;8.288;2022-09-03T14:53:22;4.00;;;2.63;;
9160;SDS011;4615;51.340;8.288;2022-09-03T14:56:02;4.97;;;3.05;;
9160;SDS011;4615;51.340;8.288;2022-09-03T14:58:53;3.10;;;2.35;;
9160;SDS011;4615;51.340;8.288;2022-09-03T15:01:25;3.92;;;3.10;;
9160;SDS011;4615;51.340;8.288;2022-09-03T15:04:03;3.65;;;2.10;;
9160;SDS011;4615;51.340;8.288;2022-09-03T15:06:44;2.40;;;2.20;;
9160;SDS011;4615;51.340;8.288;2022-09-03T15:09:17;3.80;;;2.22;;
9160;SDS011;4615;51.340;8.288;2022-09-03T15:11:48;5.10;;;3.50;;
9160;SDS011;4615;51.340;8.288;2022-09-03T15:14:19;4.10;;;2.65;;
9160;SDS011;4615;51.340;8.288;2022-09-03T15:16:49;3.42;;;2.00;;
9160;SDS011;4615;51.340;8.288;2022-09-03T15:19:25;3.20;;;1.70;;
9160;SDS011;4615;51.340;8.288;2022-09-03T15:22:04;2.78;;;1.80;;
9160;SDS011;4615;51.340;8.288;2022-09-03T15:24:36;1.77;;;1.60;;
9160;SDS011;4615;51.340;8.288;2022-09-03T15:27:10;2.25;;;1.50;;
9160;SDS011;4615;51.340;8.288;2022-09-03T15:29:50;3.05;;;2.75;;
9160;SDS011;4615;51.340;8.288;2022-09-03T15:32:20;6.03;;;3.20;;
9160;SDS011;4615;51.340;8.288;2022-09-03T15:34:54;3.15;;;2.20;;
9160;SDS011;4615;51.340;8.288;2022-09-03T15:37:24;4.55;;;3.28;;
9160;SDS011;4615;51.340;8.288;2022-09-03T15:39:56;5.88;;;2.80;;
9160;SDS011;4615;51.340;8.288;2022-09-03T15:42:25;3.97;;;2.60;;
9160;SDS011;4615;51.340;8.288;2022-09-03T15:44:55;2.38;;;2.05;;